Time;durP1;ratioP1;P1;durP2;ratioP2;P2;SDS_P1;SDS_P2;PMS_P1;PMS_P2;Temp;Humidity;BMP_temperature;BMP_pressure;BME280_temperature;BME280_humidity;BME280_pressure;Samples;Min_cycle;Max_cycle;Signal;HPM_P1;HPM_P2
2023/05/14 00:00:39;;;;;;;5.70;5.18;;;;;;;;;;6236945;28;20288;-75
2023/05/14 00:03:44;;;;;;;7.50;5.25;;;;;;;;;;6246236;28;20299;-76
2023/05/14 00:06:50;;;;;;;6.03;5.55;;;;;;;;;;6261819;28;20315;-75
2023/05/14 00:09:55;;;;;;;6.80;5.72;;;;;;;;;;6240601;28;20363;-76
2023/05/14 00:13:01;;;;;;;5.95;5.50;;;;;;;;;;6240337;28;20295;-75
2023/05/14 00:16:07;;;;;;;7.25;5.80;;;;;;;;;;6261378;28;20291;-76
2023/05/14 00:19:12;;;;;;;9.35;7.15;;;;;;;;;;6246666;28;20300;-75
2023/05/14 00:22:20;;;;;;;53.25;27.58;;;;;;;;;;6238993;28;20576;-76
2023/05/14 00:25:25;;;;;;;8.98;7.88;;;;;;;;;;6260017;28;20296;-76
2023/05/14 00:28:31;;;;;;;7.78;5.82;;;;;;;;;;6258556;28;20287;-76
2023/05/14 00:31:36;;;;;;;6.03;5.63;;;;;;;;;;6258713;28;20272;-76
2023/05/14 00:34:42;;;;;;;5.80;5.40;;;;;;;;;;6292281;28;20295;-76
2023/05/14 00:37:48;;;;;;;8.80;6.10;;;;;;;;;;6259036;28;20356;-75
2023/05/14 00:40:53;;;;;;;10.63;5.82;;;;;;;;;;6235384;28;20292;-75
2023/05/14 00:43:59;;;;;;;6.05;5.57;;;;;;;;;;6246268;28;20307;-75
2023/05/14 00:47:06;;;;;;;8.73;5.80;;;;;;;;;;6259023;28;20291;-75
2023/05/14 00:50:13;;;;;;;6.32;5.72;;;;;;;;;;6241314;28;20285;-76
2023/05/14 00:53:19;;;;;;;6.60;6.10;;;;;;;;;;6246836;28;20295;-76
2023/05/14 00:56:25;;;;;;;7.03;6.10;;;;;;;;;;6265198;28;20287;-75
2023/05/14 00:59:32;;;;;;;7.00;5.95;;;;;;;;;;6242819;28;20587;-75
2023/05/14 01:02:37;;;;;;;6.13;5.72;;;;;;;;;;6232597;23;20301;-75
2023/05/14 01:05:48;;;;;;;6.85;6.10;;;;;;;;;;6211630;28;20293;-75
2023/05/14 01:08:59;;;;;;;6.82;6.20;;;;;;;;;;6209858;28;20312;-75
2023/05/14 01:12:12;;;;;;;6.78;6.10;;;;;;;;;;6211252;28;20300;-75
2023/05/14 01:15:21;;;;;;;10.65;5.65;;;;;;;;;;6211336;28;20305;-76
2023/05/14 01:18:29;;;;;;;6.18;5.78;;;;;;;;;;6209564;28;20292;-75
2023/05/14 01:21:39;;;;;;;9.82;6.40;;;;;;;;;;6210215;28;20288;-76
2023/05/14 01:24:44;;;;;;;7.25;6.15;;;;;;;;;;6209472;28;20304;-75
2023/05/14 01:27:55;;;;;;;7.85;6.40;;;;;;;;;;6209827;28;20814;-76
2023/05/14 01:31:04;;;;;;;16.58;6.75;;;;;;;;;;6210984;28;20305;-76
2023/05/14 01:34:13;;;;;;;8.77;6.90;;;;;;;;;;6210441;28;20297;-76
2023/05/14 01:37:20;;;;;;;10.77;6.10;;;;;;;;;;6209534;28;20296;-75
2023/05/14 01:40:26;;;;;;;6.18;5.70;;;;;;;;;;6209283;28;20315;-76
2023/05/14 01:43:31;;;;;;;21.15;6.85;;;;;;;;;;6207774;28;20292;-74
2023/05/14 01:46:36;;;;;;;6.53;5.93;;;;;;;;;;6210039;28;20264;-76
2023/05/14 01:49:42;;;;;;;9.60;6.13;;;;;;;;;;6209080;28;20305;-75
2023/05/14 01:52:50;;;;;;;6.95;6.35;;;;;;;;;;6210148;28;20269;-75
2023/05/14 01:55:55;;;;;;;6.53;6.03;;;;;;;;;;6209501;28;20292;-75
2023/05/14 01:59:00;;;;;;;6.55;6.03;;;;;;;;;;6208924;28;20313;-76
2023/05/14 02:02:05;;;;;;;7.05;6.25;;;;;;;;;;6209931;28;20297;-76
2023/05/14 02:05:12;;;;;;;6.03;5.53;;;;;;;;;;6210293;28;20285;-76
2023/05/14 02:08:19;;;;;;;9.80;6.28;;;;;;;;;;6210288;28;20300;-76
2023/05/14 02:11:25;;;;;;;6.53;5.95;;;;;;;;;;6209001;28;20288;-75
2023/05/14 02:14:30;;;;;;;8.48;6.38;;;;;;;;;;6215151;28;20599;-76
2023/05/14 02:17:35;;;;;;;7.30;6.18;;;;;;;;;;6213918;28;20313;-76
2023/05/14 02:20:40;;;;;;;6.78;6.07;;;;;;;;;;6214414;28;20288;-74
2023/05/14 02:23:48;;;;;;;6.90;6.30;;;;;;;;;;6213590;28;20308;-76
2023/05/14 02:26:53;;;;;;;7.05;6.57;;;;;;;;;;6213885;28;20293;-76
2023/05/14 02:29:59;;;;;;;6.22;5.78;;;;;;;;;;6213250;28;20308;-76
2023/05/14 02:33:05;;;;;;;6.50;6.00;;;;;;;;;;6215174;28;20289;-76
2023/05/14 02:36:10;;;;;;;6.85;6.25;;;;;;;;;;6215415;28;20297;-75
2023/05/14 02:39:16;;;;;;;9.15;5.93;;;;;;;;;;6214715;28;20301;-76
2023/05/14 02:42:23;;;;;;;6.88;6.28;;;;;;;;;;6213841;28;20301;-76
2023/05/14 02:45:28;;;;;;;12.57;6.63;;;;;;;;;;6214859;28;20303;-75
2023/05/14 02:48:33;;;;;;;6.30;5.88;;;;;;;;;;6214510;28;20289;-75
2023/05/14 02:51:38;;;;;;;9.38;6.55;;;;;;;;;;6214724;28;20298;-75
2023/05/14 02:54:45;;;;;;;6.82;6.35;;;;;;;;;;6214429;28;20309;-75
2023/05/14 02:57:52;;;;;;;10.75;6.07;;;;;;;;;;6213791;28;20321;-76
2023/05/14 03:00:57;;;;;;;6.30;5.97;;;;;;;;;;6213712;28;20293;-77
2023/05/14 03:04:03;;;;;;;9.98;6.57;;;;;;;;;;6216885;28;20612;-75
2023/05/14 03:07:08;;;;;;;8.32;6.47;;;;;;;;;;6203663;28;20288;-75
2023/05/14 03:10:14;;;;;;;8.27;6.22;;;;;;;;;;6235179;28;20594;-75
2023/05/14 03:13:20;;;;;;;6.35;5.72;;;;;;;;;;6236485;28;20292;-74
2023/05/14 03:16:25;;;;;;;6.45;6.05;;;;;;;;;;6236753;28;20296;-75
2023/05/14 03:19:31;;;;;;;7.32;6.13;;;;;;;;;;6232538;28;20585;-75
2023/05/14 03:22:37;;;;;;;7.15;6.38;;;;;;;;;;6212512;28;20313;-75
2023/05/14 03:25:43;;;;;;;9.07;6.45;;;;;;;;;;6210939;28;20289;-76
2023/05/14 03:28:50;;;;;;;6.47;5.95;;;;;;;;;;6213303;28;20469;-75
2023/05/14 03:31:55;;;;;;;7.68;6.50;;;;;;;;;;6213659;28;20294;-75
2023/05/14 03:35:00;;;;;;;6.15;5.82;;;;;;;;;;6213369;28;20308;-74
2023/05/14 03:38:06;;;;;;;11.23;6.18;;;;;;;;;;6229569;28;20473;-74
2023/05/14 03:41:14;;;;;;;6.55;6.07;;;;;;;;;;6236127;28;20296;-76
2023/05/14 03:44:19;;;;;;;6.82;6.25;;;;;;;;;;6235563;28;20466;-76
2023/05/14 03:47:24;;;;;;;6.82;6.22;;;;;;;;;;6236256;28;20288;-74
2023/05/14 03:50:30;;;;;;;8.10;5.97;;;;;;;;;;6236102;28;20629;-75
2023/05/14 03:53:35;;;;;;;6.25;5.82;;;;;;;;;;6236256;28;20601;-75
2023/05/14 03:56:42;;;;;;;6.13;5.72;;;;;;;;;;6236024;28;20293;-77
2023/05/14 03:59:47;;;;;;;7.03;6.53;;;;;;;;;;6235404;28;20303;-75
2023/05/14 04:02:52;;;;;;;9.02;5.90;;;;;;;;;;6236376;28;20312;-75
2023/05/14 04:06:00;;;;;;;8.50;6.13;;;;;;;;;;6235309;28;20469;-77
2023/05/14 04:09:05;;;;;;;6.78;6.10;;;;;;;;;;6235696;28;20466;-75
2023/05/14 04:12:12;;;;;;;6.57;5.75;;;;;;;;;;6234203;28;20292;-75
2023/05/14 04:15:18;;;;;;;5.90;5.60;;;;;;;;;;6235082;28;20343;-76
2023/05/14 04:18:23;;;;;;;6.43;5.82;;;;;;;;;;6236514;28;20293;-76
2023/05/14 04:21:28;;;;;;;6.30;5.90;;;;;;;;;;6236250;28;20296;-74
2023/05/14 04:24:34;;;;;;;8.13;6.47;;;;;;;;;;6236364;28;20632;-74
2023/05/14 04:27:41;;;;;;;9.65;5.95;;;;;;;;;;6237151;28;20293;-74
2023/05/14 04:30:46;;;;;;;6.32;5.90;;;;;;;;;;6236525;28;20297;-76
2023/05/14 04:33:51;;;;;;;8.73;6.30;;;;;;;;;;6235880;28;20296;-76
2023/05/14 04:36:56;;;;;;;6.63;6.18;;;;;;;;;;6236091;28;20462;-75
2023/05/14 04:40:01;;;;;;;6.97;6.47;;;;;;;;;;6236399;28;20297;-74
2023/05/14 04:43:08;;;;;;;6.28;5.97;;;;;;;;;;6236495;28;20297;-74
2023/05/14 04:46:13;;;;;;;6.93;6.43;;;;;;;;;;6235949;28;20590;-75
2023/05/14 04:49:19;;;;;;;9.48;6.53;;;;;;;;;;6235649;28;20299;-75
2023/05/14 04:52:24;;;;;;;7.07;6.43;;;;;;;;;;6236282;28;20288;-76
2023/05/14 04:55:30;;;;;;;7.22;6.68;;;;;;;;;;6235105;28;20300;-76
2023/05/14 04:58:36;;;;;;;7.85;5.95;;;;;;;;;;6235087;28;20272;-74
2023/05/14 05:01:41;;;;;;;9.40;6.80;;;;;;;;;;6236504;28;20561;-75
2023/05/14 05:04:47;;;;;;;6.53;5.95;;;;;;;;;;6235612;28;20296;-74
2023/05/14 05:07:52;;;;;;;11.60;5.97;;;;;;;;;;6236128;28;20293;-74
2023/05/14 05:10:57;;;;;;;6.43;5.85;;;;;;;;;;6233053;28;20300;-75
2023/05/14 05:14:03;;;;;;;6.43;5.60;;;;;;;;;;6235478;28;20292;-74
2023/05/14 05:17:08;;;;;;;6.22;5.55;;;;;;;;;;6236070;28;20308;-75
2023/05/14 05:20:14;;;;;;;6.53;5.60;;;;;;;;;;6235503;28;20296;-76
2023/05/14 05:23:19;;;;;;;7.32;5.80;;;;;;;;;;6235278;28;20288;-75
2023/05/14 05:26:26;;;;;;;8.00;5.55;;;;;;;;;;6236026;28;20288;-75
2023/05/14 05:29:35;;;;;;;6.07;5.50;;;;;;;;;;6235511;28;20305;-76
2023/05/14 05:32:40;;;;;;;5.80;5.38;;;;;;;;;;6235443;28;20488;-75
2023/05/14 05:35:47;;;;;;;7.57;5.30;;;;;;;;;;6235207;28;20296;-74
2023/05/14 05:38:52;;;;;;;7.25;4.90;;;;;;;;;;6235346;28;20300;-76
2023/05/14 05:41:57;;;;;;;8.68;4.88;;;;;;;;;;6235787;28;20304;-74
2023/05/14 05:45:03;;;;;;;5.70;5.20;;;;;;;;;;6235203;28;20312;-75
2023/05/14 05:48:16;;;;;;;5.55;5.03;;;;;;;;;;6234923;28;20303;-75
2023/05/14 05:51:40;;;;;;;6.32;4.80;;;;;;;;;;6234477;28;20301;-74
2023/05/14 05:54:45;;;;;;;5.35;4.90;;;;;;;;;;6233704;28;20347;-76
2023/05/14 05:57:50;;;;;;;5.05;4.63;;;;;;;;;;6235640;28;20292;-75
2023/05/14 06:00:57;;;;;;;4.30;4.00;;;;;;;;;;6234877;28;20316;-74
2023/05/14 06:04:03;;;;;;;5.88;4.80;;;;;;;;;;6234091;28;20300;-75
2023/05/14 06:07:11;;;;;;;8.05;5.20;;;;;;;;;;6235630;28;20300;-76
2023/05/14 06:10:16;;;;;;;5.00;4.60;;;;;;;;;;6232143;28;20296;-76
2023/05/14 06:13:21;;;;;;;4.80;4.28;;;;;;;;;;6234882;28;20311;-75
2023/05/14 06:16:28;;;;;;;5.88;4.68;;;;;;;;;;6234046;28;20292;-74
2023/05/14 06:19:33;;;;;;;5.60;4.72;;;;;;;;;;6233576;28;20292;-74
2023/05/14 06:22:38;;;;;;;9.10;4.55;;;;;;;;;;6235110;28;20273;-76
2023/05/14 06:25:43;;;;;;;4.78;4.32;;;;;;;;;;6234027;28;20292;-75
2023/05/14 06:28:48;;;;;;;6.20;4.60;;;;;;;;;;6234113;28;20311;-75
2023/05/14 06:32:02;;;;;;;7.88;4.78;;;;;;;;;;6235270;28;20296;-75
2023/05/14 06:35:09;;;;;;;4.85;4.50;;;;;;;;;;6234348;28;20300;-75
2023/05/14 06:38:14;;;;;;;5.35;4.40;;;;;;;;;;6234654;28;20288;-75
2023/05/14 06:41:20;;;;;;;5.50;4.07;;;;;;;;;;6234483;28;20292;-75
2023/05/14 06:44:25;;;;;;;4.30;4.15;;;;;;;;;;6233818;28;20292;-74
2023/05/14 06:47:32;;;;;;;4.72;4.32;;;;;;;;;;6234854;28;20293;-74
2023/05/14 06:50:37;;;;;;;4.90;4.28;;;;;;;;;;6234098;28;20296;-75
2023/05/14 06:53:42;;;;;;;10.05;4.25;;;;;;;;;;6234018;28;20288;-75
2023/05/14 06:56:47;;;;;;;7.85;4.28;;;;;;;;;;6235197;28;20292;-75
2023/05/14 06:59:53;;;;;;;4.43;4.20;;;;;;;;;;6236780;28;20297;-75
2023/05/14 07:02:59;;;;;;;4.88;4.30;;;;;;;;;;6238928;28;20300;-75
2023/05/14 07:06:05;;;;;;;8.63;4.43;;;;;;;;;;6238451;28;20296;-76
2023/05/14 07:09:10;;;;;;;3.92;3.72;;;;;;;;;;6238839;28;20312;-74
2023/05/14 07:12:15;;;;;;;8.05;4.55;;;;;;;;;;6236084;28;20296;-76
2023/05/14 07:15:20;;;;;;;3.88;3.58;;;;;;;;;;6238061;28;20292;-74
2023/05/14 07:18:27;;;;;;;4.57;4.18;;;;;;;;;;6237902;28;20286;-74
2023/05/14 07:21:32;;;;;;;7.03;4.13;;;;;;;;;;6238372;28;20373;-74
2023/05/14 07:24:37;;;;;;;4.13;4.03;;;;;;;;;;6237778;28;20300;-74
2023/05/14 07:27:42;;;;;;;5.70;3.97;;;;;;;;;;6238692;28;20296;-75
2023/05/14 07:30:48;;;;;;;5.28;4.00;;;;;;;;;;6237904;28;20299;-75
2023/05/14 07:33:54;;;;;;;5.65;4.10;;;;;;;;;;6236427;28;20296;-74
2023/05/14 07:37:00;;;;;;;5.30;3.80;;;;;;;;;;6238466;28;20549;-74
2023/05/14 07:40:06;;;;;;;4.20;3.83;;;;;;;;;;6237677;28;20296;-77
2023/05/14 07:43:12;;;;;;;6.00;3.63;;;;;;;;;;6237974;28;20529;-74
2023/05/14 07:46:17;;;;;;;4.75;4.38;;;;;;;;;;6237286;28;20293;-76
2023/05/14 07:49:24;;;;;;;6.45;4.15;;;;;;;;;;6237259;28;20588;-74
2023/05/14 07:52:29;;;;;;;3.97;3.75;;;;;;;;;;6236637;28;20465;-75
2023/05/14 07:55:34;;;;;;;4.30;3.40;;;;;;;;;;6237267;28;20313;-74
2023/05/14 07:58:39;;;;;;;5.78;3.97;;;;;;;;;;6237277;28;20296;-75
2023/05/14 08:01:45;;;;;;;5.00;4.00;;;;;;;;;;6237226;28;20305;-75
2023/05/14 08:04:52;;;;;;;4.32;3.72;;;;;;;;;;6236919;28;20289;-74
2023/05/14 08:07:57;;;;;;;3.95;3.67;;;;;;;;;;6237265;28;20288;-74
2023/05/14 08:11:03;;;;;;;4.28;3.90;;;;;;;;;;6229596;28;20301;-74
2023/05/14 08:14:08;;;;;;;4.40;3.97;;;;;;;;;;6212324;28;20286;-77
2023/05/14 08:17:13;;;;;;;4.45;4.00;;;;;;;;;;6213181;28;20296;-75
2023/05/14 08:20:20;;;;;;;3.80;3.60;;;;;;;;;;6212364;28;20288;-74
2023/05/14 08:23:25;;;;;;;4.20;3.80;;;;;;;;;;6211047;28;20301;-75
2023/05/14 08:26:30;;;;;;;3.65;3.42;;;;;;;;;;6212638;28;20285;-74
2023/05/14 08:29:35;;;;;;;7.30;3.97;;;;;;;;;;6212657;28;20585;-75
2023/05/14 08:32:41;;;;;;;4.25;3.83;;;;;;;;;;6212970;28;20296;-74
2023/05/14 08:35:47;;;;;;;7.03;3.90;;;;;;;;;;6212371;28;20313;-75
2023/05/14 08:38:53;;;;;;;4.55;4.10;;;;;;;;;;6212010;28;20289;-73
2023/05/14 08:41:58;;;;;;;4.38;4.10;;;;;;;;;;6212313;28;20321;-73
2023/05/14 08:45:05;;;;;;;4.07;3.83;;;;;;;;;;6212477;28;20304;-74
2023/05/14 08:48:14;;;;;;;4.50;4.10;;;;;;;;;;6212594;28;20312;-75
2023/05/14 08:51:21;;;;;;;7.43;3.92;;;;;;;;;;6210072;28;20349;-73
2023/05/14 08:54:31;;;;;;;3.70;3.60;;;;;;;;;;6211909;28;20306;-74
2023/05/14 08:57:43;;;;;;;4.75;4.35;;;;;;;;;;6216357;28;20300;-76
2023/05/14 09:00:51;;;;;;;4.40;3.80;;;;;;;;;;6220910;28;20297;-74
2023/05/14 09:03:56;;;;;;;4.18;3.88;;;;;;;;;;6210682;28;20314;-75
2023/05/14 09:07:03;;;;;;;4.97;4.00;;;;;;;;;;6211824;28;20300;-74
2023/05/14 09:10:09;;;;;;;3.72;3.47;;;;;;;;;;6213174;28;20309;-74
2023/05/14 09:13:14;;;;;;;5.10;3.80;;;;;;;;;;6186211;28;20301;-75
2023/05/14 09:16:20;;;;;;;4.25;3.80;;;;;;;;;;6186758;28;20294;-73
2023/05/14 09:19:25;;;;;;;5.88;3.78;;;;;;;;;;6186752;28;20297;-74
2023/05/14 09:22:32;;;;;;;3.85;3.67;;;;;;;;;;6183742;28;20309;-75
2023/05/14 09:25:37;;;;;;;5.72;3.78;;;;;;;;;;6186848;28;20305;-74
2023/05/14 09:28:42;;;;;;;3.75;3.45;;;;;;;;;;6186219;28;20291;-76
2023/05/14 09:31:51;;;;;;;13.85;3.67;;;;;;;;;;6185300;28;20270;-76
2023/05/14 09:34:57;;;;;;;4.78;3.30;;;;;;;;;;6186499;28;20309;-75
2023/05/14 09:38:04;;;;;;;8.40;3.85;;;;;;;;;;6187170;28;20298;-74
2023/05/14 09:41:09;;;;;;;6.68;3.67;;;;;;;;;;6185440;28;20290;-74
2023/05/14 09:44:15;;;;;;;5.80;3.60;;;;;;;;;;6186419;28;20302;-74
2023/05/14 09:47:20;;;;;;;7.35;3.50;;;;;;;;;;6187414;28;20294;-74
2023/05/14 09:50:25;;;;;;;4.28;3.50;;;;;;;;;;6186410;28;20293;-74
2023/05/14 09:53:34;;;;;;;4.20;3.97;;;;;;;;;;6186147;28;20297;-75
2023/05/14 09:56:39;;;;;;;3.60;3.40;;;;;;;;;;6187007;28;20309;-74
2023/05/14 09:59:44;;;;;;;4.05;3.30;;;;;;;;;;6186491;28;20289;-75
2023/05/14 10:02:52;;;;;;;4.78;3.58;;;;;;;;;;6186561;28;20294;-74
2023/05/14 10:06:04;;;;;;;3.60;3.33;;;;;;;;;;6186161;28;20301;-75
2023/05/14 10:09:13;;;;;;;3.67;3.15;;;;;;;;;;6185845;28;20609;-75
2023/05/14 10:12:21;;;;;;;4.85;3.03;;;;;;;;;;6208509;28;20498;-75
2023/05/14 10:15:32;;;;;;;5.95;3.28;;;;;;;;;;6210106;28;20304;-75
2023/05/14 10:18:41;;;;;;;3.00;2.78;;;;;;;;;;6210433;28;20293;-74
2023/05/14 10:21:48;;;;;;;7.93;3.28;;;;;;;;;;6208652;28;20302;-74
2023/05/14 10:24:56;;;;;;;3.00;2.70;;;;;;;;;;6210231;28;20305;-74
2023/05/14 10:28:02;;;;;;;2.67;2.58;;;;;;;;;;6210834;28;20555;-74
2023/05/14 10:31:10;;;;;;;2.80;2.70;;;;;;;;;;6210737;28;20297;-74
2023/05/14 10:34:36;;;;;;;4.15;3.08;;;;;;;;;;6213028;28;20317;-74
2023/05/14 10:37:41;;;;;;;4.47;2.72;;;;;;;;;;6214521;28;20270;-74
2023/05/14 10:40:48;;;;;;;2.83;2.78;;;;;;;;;;6213254;28;20293;-75
2023/05/14 10:43:58;;;;;;;12.30;3.58;;;;;;;;;;6196369;28;20305;-75
2023/05/14 10:47:04;;;;;;;9.13;2.75;;;;;;;;;;6190964;28;20294;-78
2023/05/14 10:50:12;;;;;;;3.10;3.00;;;;;;;;;;6190192;28;20293;-77
2023/05/14 10:53:18;;;;;;;4.30;2.78;;;;;;;;;;6190230;28;20302;-77
2023/05/14 10:56:25;;;;;;;6.50;2.97;;;;;;;;;;6189160;28;20554;-78
2023/05/14 10:59:30;;;;;;;3.63;3.53;;;;;;;;;;6190139;28;20289;-77
2023/05/14 11:02:36;;;;;;;6.50;3.17;;;;;;;;;;6189815;28;20325;-77
2023/05/14 11:05:42;;;;;;;3.15;2.85;;;;;;;;;;6188849;28;20293;-77
2023/05/14 11:08:47;;;;;;;5.90;2.85;;;;;;;;;;6190067;28;20294;-77
2023/05/14 11:11:54;;;;;;;5.32;3.20;;;;;;;;;;6208865;28;20297;-77
2023/05/14 11:15:00;;;;;;;3.35;2.72;;;;;;;;;;6214245;28;20295;-77
2023/05/14 11:18:06;;;;;;;3.67;3.00;;;;;;;;;;6212961;28;20316;-77
2023/05/14 11:21:11;;;;;;;4.88;3.13;;;;;;;;;;6214057;28;20309;-78
2023/05/14 11:24:17;;;;;;;2.67;2.63;;;;;;;;;;6213718;28;20300;-78
2023/05/14 11:27:24;;;;;;;7.68;3.10;;;;;;;;;;6214207;28;20293;-76
2023/05/14 11:30:29;;;;;;;10.10;3.30;;;;;;;;;;6212698;28;20297;-76
2023/05/14 11:33:34;;;;;;;7.50;3.28;;;;;;;;;;6213934;28;20289;-78
2023/05/14 11:36:39;;;;;;;4.50;3.47;;;;;;;;;;6212960;28;20298;-77
2023/05/14 11:39:48;;;;;;;3.80;3.10;;;;;;;;;;6214022;28;20294;-77
2023/05/14 11:42:55;;;;;;;3.63;3.42;;;;;;;;;;6217028;28;20294;-77
2023/05/14 11:46:00;;;;;;;3.47;3.20;;;;;;;;;;6212444;28;20306;-78
2023/05/14 11:49:06;;;;;;;3.25;3.00;;;;;;;;;;6213496;28;20297;-77
2023/05/14 11:52:13;;;;;;;4.18;3.28;;;;;;;;;;6213995;28;20309;-76
2023/05/14 11:55:19;;;;;;;5.95;3.30;;;;;;;;;;6213677;28;20301;-78
2023/05/14 11:58:26;;;;;;;4.13;2.90;;;;;;;;;;6212250;28;20605;-77
2023/05/14 12:01:36;;;;;;;4.55;3.08;;;;;;;;;;6212882;28;20277;-76
2023/05/14 12:04:42;;;;;;;8.90;3.75;;;;;;;;;;6213536;28;20299;-77
2023/05/14 12:07:48;;;;;;;3.40;3.20;;;;;;;;;;6214415;28;20270;-75
2023/05/14 12:10:54;;;;;;;2.97;2.78;;;;;;;;;;6216282;28;20293;-77
2023/05/14 12:14:01;;;;;;;7.22;3.38;;;;;;;;;;6212738;28;20312;-75
2023/05/14 12:17:15;;;;;;;7.00;3.13;;;;;;;;;;6213564;28;20288;-75
2023/05/14 12:20:20;;;;;;;3.40;3.10;;;;;;;;;;6212662;28;20300;-76
2023/05/14 12:23:29;;;;;;;19.27;7.82;;;;;;;;;;6211072;28;20434;-78
2023/05/14 12:26:34;;;;;;;4.47;3.75;;;;;;;;;;6212755;28;20301;-78
2023/05/14 12:29:41;;;;;;;7.00;3.30;;;;;;;;;;6212232;28;20304;-78
2023/05/14 12:32:47;;;;;;;9.38;3.30;;;;;;;;;;6213287;28;20588;-78
2023/05/14 12:35:56;;;;;;;3.50;2.92;;;;;;;;;;6212506;28;20301;-75
2023/05/14 12:39:04;;;;;;;3.47;3.10;;;;;;;;;;6211856;28;20297;-75
2023/05/14 12:42:12;;;;;;;6.45;2.90;;;;;;;;;;6212422;28;20301;-77
2023/05/14 12:45:18;;;;;;;4.03;3.35;;;;;;;;;;6210831;28;20301;-75
2023/05/14 12:48:24;;;;;;;3.00;2.80;;;;;;;;;;6210225;28;20301;-76
2023/05/14 12:51:30;;;;;;;2.92;2.83;;;;;;;;;;6211039;28;20561;-76
2023/05/14 12:54:35;;;;;;;7.97;2.83;;;;;;;;;;6211883;28;20297;-76
2023/05/14 12:57:40;;;;;;;2.70;2.60;;;;;;;;;;6212266;28;20289;-76
2023/05/14 13:00:46;;;;;;;4.97;3.15;;;;;;;;;;6212221;28;20455;-76
2023/05/14 13:03:52;;;;;;;17.00;3.55;;;;;;;;;;6210917;28;20296;-76
2023/05/14 13:06:57;;;;;;;3.40;3.10;;;;;;;;;;6212263;28;20297;-77
2023/05/14 13:10:04;;;;;;;3.38;2.65;;;;;;;;;;6212580;28;20293;-75
2023/05/14 13:13:10;;;;;;;9.07;2.58;;;;;;;;;;6212526;28;20289;-76
2023/05/14 13:16:16;;;;;;;4.35;2.85;;;;;;;;;;6211151;28;20304;-76
2023/05/14 13:19:21;;;;;;;3.25;2.83;;;;;;;;;;6211635;28;20412;-77
2023/05/14 13:22:26;;;;;;;7.20;2.80;;;;;;;;;;6211585;28;20305;-76
2023/05/14 13:25:33;;;;;;;2.70;2.58;;;;;;;;;;6210582;28;20253;-76
2023/05/14 13:28:38;;;;;;;9.20;2.83;;;;;;;;;;6211067;28;20337;-76
2023/05/14 13:31:45;;;;;;;5.40;2.88;;;;;;;;;;6211727;28;20269;-76
2023/05/14 13:34:50;;;;;;;2.75;2.40;;;;;;;;;;6211021;28;20296;-76
2023/05/14 13:37:55;;;;;;;3.05;2.70;;;;;;;;;;6211465;28;20280;-75
2023/05/14 13:41:01;;;;;;;3.17;2.85;;;;;;;;;;6210700;28;20293;-75
2023/05/14 13:44:07;;;;;;;6.20;2.70;;;;;;;;;;6210570;28;20293;-76
2023/05/14 13:47:13;;;;;;;2.80;2.63;;;;;;;;;;6211238;28;20293;-75
2023/05/14 13:50:20;;;;;;;3.53;2.67;;;;;;;;;;6210755;28;20298;-76
2023/05/14 13:53:26;;;;;;;2.92;2.83;;;;;;;;;;6210735;28;20288;-75
2023/05/14 13:56:31;;;;;;;5.43;2.75;;;;;;;;;;6210953;28;20292;-76
2023/05/14 13:59:36;;;;;;;3.50;2.90;;;;;;;;;;6210943;28;20312;-76
2023/05/14 14:02:42;;;;;;;6.35;2.83;;;;;;;;;;6210690;28;20302;-76
2023/05/14 14:05:50;;;;;;;3.03;2.72;;;;;;;;;;6211682;28;20300;-76
2023/05/14 14:08:57;;;;;;;6.82;2.90;;;;;;;;;;6217908;28;20289;-74
2023/05/14 14:12:04;;;;;;;3.20;2.80;;;;;;;;;;6219480;28;20297;-75
2023/05/14 14:15:11;;;;;;;7.72;2.70;;;;;;;;;;6215652;28;20306;-75
2023/05/14 14:18:18;;;;;;;6.88;2.53;;;;;;;;;;6215889;28;20300;-75
2023/05/14 14:21:23;;;;;;;9.50;7.13;;;;;;;;;;6215239;28;20300;-76
2023/05/14 14:24:28;;;;;;;10.32;4.60;;;;;;;;;;6213553;28;20304;-75
2023/05/14 14:27:37;;;;;;;4.88;4.50;;;;;;;;;;6214383;28;20293;-76
2023/05/14 14:30:42;;;;;;;6.30;3.90;;;;;;;;;;6215251;28;20297;-76
2023/05/14 14:33:49;;;;;;;6.22;3.92;;;;;;;;;;6213994;28;20609;-76
2023/05/14 14:36:54;;;;;;;5.30;4.07;;;;;;;;;;6215342;28;20301;-77
2023/05/14 14:39:59;;;;;;;7.07;3.22;;;;;;;;;;6215000;28;20293;-76
2023/05/14 14:43:04;;;;;;;3.75;3.22;;;;;;;;;;6215024;28;20487;-75
2023/05/14 14:46:11;;;;;;;2.88;2.67;;;;;;;;;;6214777;28;20300;-76
2023/05/14 14:49:18;;;;;;;3.00;2.80;;;;;;;;;;6214941;28;20468;-76
2023/05/14 14:52:23;;;;;;;2.95;2.60;;;;;;;;;;6214966;28;20298;-75
2023/05/14 14:55:28;;;;;;;2.65;2.65;;;;;;;;;;6214026;28;20320;-78
2023/05/14 14:58:33;;;;;;;7.38;2.88;;;;;;;;;;6214139;28;20549;-75
2023/05/14 15:01:38;;;;;;;6.60;3.10;;;;;;;;;;6214818;28;20269;-76
2023/05/14 15:04:45;;;;;;;3.22;3.03;;;;;;;;;;6166133;28;20294;-75
2023/05/14 15:07:50;;;;;;;6.72;2.90;;;;;;;;;;6166541;28;20486;-77
2023/05/14 15:10:56;;;;;;;3.30;2.92;;;;;;;;;;6168638;28;20317;-74
2023/05/14 15:14:02;;;;;;;3.20;3.00;;;;;;;;;;6164341;28;20294;-76
2023/05/14 15:17:07;;;;;;;5.07;3.47;;;;;;;;;;6166107;28;20294;-75
2023/05/14 15:20:15;;;;;;;6.53;3.42;;;;;;;;;;6164569;28;20476;-74
2023/05/14 15:23:20;;;;;;;3.38;2.72;;;;;;;;;;6165351;28;20313;-74
2023/05/14 15:26:25;;;;;;;7.35;2.92;;;;;;;;;;6165477;28;20290;-74
2023/05/14 15:29:31;;;;;;;5.25;3.30;;;;;;;;;;6164447;28;20298;-73
2023/05/14 15:32:37;;;;;;;5.22;3.25;;;;;;;;;;6165629;28;20602;-74
2023/05/14 15:35:43;;;;;;;4.13;3.60;;;;;;;;;;6165136;28;20387;-76
2023/05/14 15:38:48;;;;;;;3.08;2.88;;;;;;;;;;6163547;28;20307;-75
2023/05/14 15:41:53;;;;;;;5.78;3.92;;;;;;;;;;6165527;28;20551;-75
2023/05/14 15:44:58;;;;;;;6.70;6.10;;;;;;;;;;6164589;28;20314;-75
2023/05/14 15:48:04;;;;;;;5.72;3.55;;;;;;;;;;6165611;28;20735;-76
2023/05/14 15:51:10;;;;;;;4.93;3.30;;;;;;;;;;6164856;28;20302;-75
2023/05/14 15:54:16;;;;;;;7.60;3.13;;;;;;;;;;6164819;28;20310;-76
2023/05/14 15:57:21;;;;;;;3.03;2.92;;;;;;;;;;6165430;28;20480;-76
2023/05/14 16:00:26;;;;;;;3.53;3.33;;;;;;;;;;6164744;28;20302;-76
2023/05/14 16:03:31;;;;;;;6.75;3.00;;;;;;;;;;6193040;28;20301;-75
2023/05/14 16:06:40;;;;;;;3.40;3.10;;;;;;;;;;6212660;28;20293;-76
2023/05/14 16:09:45;;;;;;;8.77;3.60;;;;;;;;;;6212760;28;20330;-77
2023/05/14 16:12:50;;;;;;;5.70;4.13;;;;;;;;;;6233709;28;20292;-75
2023/05/14 16:15:56;;;;;;;8.27;3.17;;;;;;;;;;6236124;28;20292;-74
2023/05/14 16:19:01;;;;;;;6.68;3.13;;;;;;;;;;6236469;28;20301;-75
2023/05/14 16:22:07;;;;;;;3.25;3.03;;;;;;;;;;6236807;28;20605;-76
2023/05/14 16:25:13;;;;;;;2.85;2.80;;;;;;;;;;6236789;28;20296;-76
2023/05/14 16:28:18;;;;;;;6.70;3.22;;;;;;;;;;6236859;28;20301;-75
2023/05/14 16:31:23;;;;;;;7.63;2.97;;;;;;;;;;6235811;28;20288;-76
2023/05/14 16:34:28;;;;;;;8.13;2.97;;;;;;;;;;6235806;28;20560;-77
2023/05/14 16:37:35;;;;;;;3.20;2.90;;;;;;;;;;6236120;28;20277;-76
2023/05/14 16:40:40;;;;;;;2.72;2.63;;;;;;;;;;6236012;28;20296;-75
2023/05/14 16:43:45;;;;;;;2.83;2.72;;;;;;;;;;6235569;28;20304;-77
2023/05/14 16:46:50;;;;;;;3.45;2.70;;;;;;;;;;6236487;28;20308;-76
2023/05/14 16:49:56;;;;;;;5.80;2.88;;;;;;;;;;6235849;28;20304;-77
2023/05/14 16:53:02;;;;;;;5.32;2.75;;;;;;;;;;6236372;28;20470;-76
2023/05/14 16:56:08;;;;;;;10.20;3.13;;;;;;;;;;6236112;28;20288;-76
2023/05/14 16:59:14;;;;;;;8.45;2.95;;;;;;;;;;6235803;28;20285;-76
2023/05/14 17:02:20;;;;;;;5.45;3.20;;;;;;;;;;6235716;28;20301;-77
2023/05/14 17:05:25;;;;;;;4.80;2.70;;;;;;;;;;6235965;28;20756;-75
2023/05/14 17:08:34;;;;;;;5.90;3.20;;;;;;;;;;6236092;28;20309;-76
2023/05/14 17:11:39;;;;;;;3.00;2.78;;;;;;;;;;6232353;28;20550;-77
2023/05/14 17:14:44;;;;;;;2.80;2.70;;;;;;;;;;6236000;28;20596;-76
2023/05/14 17:17:49;;;;;;;3.55;3.25;;;;;;;;;;6236333;28;20608;-75
2023/05/14 17:20:55;;;;;;;3.95;3.33;;;;;;;;;;6236003;28;20406;-76
2023/05/14 17:24:01;;;;;;;3.17;2.85;;;;;;;;;;6235588;28;20298;-75
2023/05/14 17:27:07;;;;;;;4.40;2.75;;;;;;;;;;6235970;28;20301;-77
2023/05/14 17:30:12;;;;;;;3.38;3.17;;;;;;;;;;6235660;28;20296;-76
2023/05/14 17:33:18;;;;;;;3.35;3.00;;;;;;;;;;6235819;28;20292;-74
2023/05/14 17:36:23;;;;;;;3.15;2.85;;;;;;;;;;6235040;28;20300;-76
2023/05/14 17:39:30;;;;;;;3.10;2.90;;;;;;;;;;6234761;28;20486;-76
2023/05/14 17:42:35;;;;;;;3.05;2.95;;;;;;;;;;6235207;28;20576;-76
2023/05/14 17:45:40;;;;;;;6.72;3.35;;;;;;;;;;6235654;28;20301;-75
2023/05/14 17:48:58;;;;;;;6.93;3.35;;;;;;;;;;6235266;28;20304;-76
2023/05/14 17:52:04;;;;;;;4.03;3.40;;;;;;;;;;6234156;28;20288;-76
2023/05/14 17:55:12;;;;;;;3.90;3.70;;;;;;;;;;6234205;28;20388;-74
2023/05/14 17:58:17;;;;;;;5.88;3.28;;;;;;;;;;6235825;28;20295;-78
2023/05/14 18:01:23;;;;;;;5.53;3.20;;;;;;;;;;6234308;28;20470;-79
2023/05/14 18:04:28;;;;;;;4.00;3.28;;;;;;;;;;6223238;28;20294;-76
2023/05/14 18:07:33;;;;;;;8.52;3.80;;;;;;;;;;6235633;28;20555;-76
2023/05/14 18:10:40;;;;;;;5.15;3.58;;;;;;;;;;6232084;28;20300;-76
2023/05/14 18:13:45;;;;;;;6.13;3.33;;;;;;;;;;6234886;28;20292;-76
2023/05/14 18:16:50;;;;;;;4.88;2.92;;;;;;;;;;6235876;28;20289;-74
2023/05/14 18:19:55;;;;;;;3.65;2.97;;;;;;;;;;6234718;28;20417;-78
2023/05/14 18:23:00;;;;;;;4.20;3.42;;;;;;;;;;6235351;28;20284;-78
2023/05/14 18:26:07;;;;;;;4.78;3.38;;;;;;;;;;6233415;28;20604;-76
2023/05/14 18:29:12;;;;;;;5.38;3.15;;;;;;;;;;6233920;28;20468;-75
2023/05/14 18:32:17;;;;;;;5.05;3.22;;;;;;;;;;6235277;28;20285;-76
2023/05/14 18:35:23;;;;;;;7.43;3.00;;;;;;;;;;6234818;28;20285;-75